createdAt,value
2024-03-14T00:00:24.604Z,15.30
2024-03-14T00:03:29.301Z,14.57
2024-03-14T00:06:31.361Z,13.73
2024-03-14T00:09:33.708Z,14.13
2024-03-14T00:12:37.563Z,13.73
2024-03-14T00:15:39.289Z,13.35
2024-03-14T00:18:41.156Z,14.60
2024-03-14T00:21:43.077Z,14.20
2024-03-14T00:24:45.052Z,13.02
2024-03-14T00:27:46.700Z,13.20
2024-03-14T00:30:48.338Z,12.80
2024-03-14T00:33:50.007Z,12.38
2024-03-14T00:36:51.686Z,12.32
2024-03-14T00:39:53.384Z,13.23
2024-03-14T00:42:55.092Z,14.00
2024-03-14T00:45:58.076Z,12.45
2024-03-14T00:49:00.639Z,13.20
2024-03-14T00:52:02.295Z,12.77
2024-03-14T00:55:08.233Z,11.15
2024-03-14T00:58:12.228Z,13.40
2024-03-14T01:01:14.862Z,11.88
2024-03-14T01:04:18.902Z,11.80
2024-03-14T01:07:20.652Z,11.77
2024-03-14T01:10:22.353Z,11.15
2024-03-14T01:13:26.674Z,12.35
2024-03-14T01:16:28.408Z,12.18
2024-03-14T01:19:30.091Z,12.40
2024-03-14T01:22:31.779Z,12.35
2024-03-14T01:25:33.420Z,12.95
2024-03-14T01:28:35.931Z,12.75
2024-03-14T01:31:37.631Z,9.50
2024-03-14T01:34:39.305Z,10.15
2024-03-14T01:37:41.060Z,9.13
2024-03-14T01:40:42.772Z,10.10
2024-03-14T01:43:59.865Z,8.98
2024-03-14T01:47:01.656Z,10.27
2024-03-14T01:50:07.018Z,10.02
2024-03-14T01:53:08.797Z,10.38
2024-03-14T01:56:11.056Z,11.38
2024-03-14T01:59:14.556Z,9.68
2024-03-14T02:02:18.777Z,9.38
2024-03-14T02:05:35.445Z,10.02
2024-03-14T02:08:37.308Z,10.77
2024-03-14T02:11:38.968Z,11.52
2024-03-14T02:14:40.633Z,12.20
2024-03-14T02:17:42.401Z,12.07
2024-03-14T02:20:44.123Z,11.52
2024-03-14T02:23:45.922Z,10.40
2024-03-14T02:26:47.644Z,12.45
2024-03-14T02:29:49.621Z,10.30
2024-03-14T02:32:52.747Z,12.15
2024-03-14T02:35:54.610Z,9.73
2024-03-14T02:38:56.365Z,10.90
2024-03-14T02:41:58.166Z,11.60
2024-03-14T02:45:01.896Z,12.00
2024-03-14T02:48:05.658Z,13.32
2024-03-14T02:51:07.601Z,11.00
2024-03-14T02:54:09.304Z,10.77
2024-03-14T02:57:17.772Z,9.05
2024-03-14T03:00:20.562Z,12.85
2024-03-14T03:03:23.261Z,11.15
2024-03-14T03:06:28.031Z,10.27
2024-03-14T03:09:31.019Z,10.13
2024-03-14T03:12:40.468Z,9.32
2024-03-14T03:15:42.407Z,10.05
2024-03-14T03:18:44.081Z,10.13
2024-03-14T03:21:45.832Z,9.30
2024-03-14T03:24:47.466Z,10.05
2024-03-14T03:27:49.121Z,16.65
2024-03-14T03:30:50.815Z,14.77
2024-03-14T03:33:52.541Z,15.45
2024-03-14T03:36:55.244Z,16.85
2024-03-14T03:39:58.017Z,21.60
2024-03-14T03:42:59.694Z,21.45
2024-03-14T03:46:01.720Z,21.30
2024-03-14T03:49:03.704Z,15.68
2024-03-14T03:52:07.733Z,15.68
2024-03-14T03:55:17.194Z,13.00
2024-03-14T03:58:18.847Z,18.17
2024-03-14T04:01:23.652Z,19.05
2024-03-14T04:04:25.308Z,12.80
2024-03-14T04:07:29.759Z,19.58
2024-03-14T04:10:32.992Z,23.73
2024-03-14T04:13:35.064Z,14.27
2024-03-14T04:16:38.071Z,16.05
2024-03-14T04:19:40.494Z,12.65
2024-03-14T04:22:42.239Z,13.13
2024-03-14T04:25:43.896Z,9.60
2024-03-14T04:28:46.212Z,11.88
2024-03-14T04:31:47.902Z,11.10
2024-03-14T04:34:49.553Z,11.57
2024-03-14T04:37:53.147Z,10.70
2024-03-14T04:40:57.223Z,10.70
2024-03-14T04:43:58.993Z,10.52
2024-03-14T04:47:00.645Z,9.70
2024-03-14T04:50:03.273Z,11.05
2024-03-14T04:53:05.891Z,9.30
2024-03-14T04:56:07.722Z,8.60
2024-03-14T04:59:10.461Z,9.27
2024-03-14T05:02:12.146Z,9.63
2024-03-14T05:05:14.252Z,10.43
2024-03-14T05:08:15.891Z,10.77
2024-03-14T05:11:17.578Z,9.77
2024-03-14T05:14:19.231Z,7.78
2024-03-14T05:17:21.304Z,8.90
2024-03-14T05:20:24.710Z,8.00
2024-03-14T05:23:26.444Z,8.32
2024-03-14T05:26:30.946Z,7.00
2024-03-14T05:29:32.577Z,7.72
2024-03-14T05:32:35.260Z,8.70
2024-03-14T05:35:37.050Z,9.10
2024-03-14T05:38:38.690Z,8.30
2024-03-14T05:41:40.700Z,8.18
2024-03-14T05:44:42.760Z,9.70
2024-03-14T05:47:44.552Z,8.02
2024-03-14T05:50:47.934Z,7.78
2024-03-14T05:53:49.630Z,8.32
2024-03-14T05:56:51.305Z,9.63
2024-03-14T05:59:53.019Z,8.63
2024-03-14T06:02:54.702Z,11.85
2024-03-14T06:05:56.452Z,9.45
2024-03-14T06:08:58.140Z,9.13
2024-03-14T06:12:02.943Z,9.25
2024-03-14T06:15:10.646Z,8.93
2024-03-14T06:18:12.655Z,10.25
2024-03-14T06:21:14.604Z,10.43
2024-03-14T06:24:17.977Z,9.00
2024-03-14T06:27:19.712Z,11.07
2024-03-14T06:30:22.254Z,10.23
2024-03-14T06:33:25.135Z,10.63
2024-03-14T06:36:28.081Z,13.95
2024-03-14T06:39:31.860Z,12.13
2024-03-14T06:42:34.371Z,11.82
2024-03-14T06:45:36.299Z,11.38
2024-03-14T06:48:38.192Z,11.30
2024-03-14T06:51:43.523Z,12.10
2024-03-14T06:54:45.264Z,12.02
2024-03-14T06:57:48.788Z,11.40
2024-03-14T07:00:50.463Z,14.27
2024-03-14T07:03:52.598Z,11.88
2024-03-14T07:06:54.343Z,13.65
2024-03-14T07:09:56.259Z,13.38
2024-03-14T07:13:01.647Z,12.98
2024-03-14T07:16:03.398Z,15.00
2024-03-14T07:19:07.786Z,16.00
2024-03-14T07:22:10.820Z,13.15
2024-03-14T07:25:20.196Z,22.45
2024-03-14T07:28:22.436Z,20.48
2024-03-14T07:31:24.292Z,21.50
2024-03-14T07:34:26.851Z,12.27
2024-03-14T07:37:28.521Z,12.40
2024-03-14T07:40:34.526Z,12.32
2024-03-14T07:46:38.499Z,13.23
2024-03-14T07:49:40.935Z,16.60
2024-03-14T07:52:42.635Z,15.20
2024-03-14T07:55:44.285Z,11.95
2024-03-14T07:58:47.569Z,13.45
2024-03-14T08:01:51.228Z,11.85
2024-03-14T08:04:53.247Z,9.65
2024-03-14T08:08:04.399Z,8.50
2024-03-14T08:11:18.161Z,7.50
2024-03-14T08:14:19.950Z,7.75
2024-03-14T08:17:21.819Z,8.13
2024-03-14T08:20:25.797Z,6.55
2024-03-14T08:23:28.251Z,7.93
2024-03-14T08:26:31.183Z,6.50
2024-03-14T08:29:32.864Z,6.13
2024-03-14T08:32:34.534Z,7.15
2024-03-14T08:35:41.702Z,6.65
2024-03-14T08:38:43.571Z,6.10
2024-03-14T08:41:45.241Z,5.18
2024-03-14T08:44:49.127Z,6.47
2024-03-14T08:47:51.144Z,5.30
2024-03-14T08:50:52.916Z,4.78
2024-03-14T08:54:09.905Z,4.65
2024-03-14T08:57:14.063Z,4.60
2024-03-14T09:00:19.091Z,3.42
2024-03-14T09:03:21.066Z,3.53
2024-03-14T09:06:22.986Z,4.63
2024-03-14T09:09:35.466Z,2.72
2024-03-14T09:12:37.239Z,4.03
2024-03-14T09:15:39.541Z,3.03
2024-03-14T09:18:41.921Z,3.63
2024-03-14T09:21:43.806Z,3.70
2024-03-14T09:24:45.554Z,3.40
2024-03-14T09:27:47.269Z,2.40
2024-03-14T09:30:48.996Z,3.03
2024-03-14T09:33:51.861Z,3.63
2024-03-14T09:36:55.203Z,3.05
2024-03-14T09:39:59.225Z,2.33
2024-03-14T09:43:01.764Z,2.13
2024-03-14T09:46:04.630Z,2.30
2024-03-14T09:49:13.991Z,2.10
2024-03-14T09:52:15.859Z,2.85
2024-03-14T09:55:19.057Z,2.20
2024-03-14T09:58:22.905Z,2.38
2024-03-14T10:01:24.907Z,2.30
2024-03-14T10:04:26.674Z,2.40
2024-03-14T10:07:31.777Z,2.10
2024-03-14T10:10:36.467Z,2.25
2024-03-14T10:13:39.112Z,1.90
2024-03-14T10:16:40.958Z,3.22
2024-03-14T10:19:42.737Z,2.15
2024-03-14T10:22:45.269Z,2.92
2024-03-14T10:25:51.753Z,2.08
2024-03-14T10:28:53.421Z,3.17
2024-03-14T10:31:55.064Z,2.30
2024-03-14T10:34:56.764Z,3.20
2024-03-14T10:37:59.768Z,2.65
2024-03-14T10:41:07.556Z,2.47
2024-03-14T10:44:15.325Z,2.85
2024-03-14T10:47:19.683Z,2.75
2024-03-14T10:50:22.701Z,3.30
2024-03-14T10:53:25.592Z,2.53
2024-03-14T10:56:28.570Z,2.97
2024-03-14T10:59:30.944Z,2.78
2024-03-14T11:02:32.939Z,3.28
2024-03-14T11:05:34.634Z,2.47
2024-03-14T11:08:40.515Z,2.72
2024-03-14T11:14:52.246Z,2.70
2024-03-14T11:18:00.618Z,3.10
2024-03-14T11:21:05.291Z,2.35
2024-03-14T11:24:11.256Z,3.50
2024-03-14T11:27:14.957Z,3.83
2024-03-14T11:30:20.366Z,2.55
2024-03-14T11:33:22.339Z,2.03
2024-03-14T11:36:24.096Z,2.60
2024-03-14T11:39:27.630Z,3.08
2024-03-14T11:42:29.704Z,2.38
2024-03-14T11:45:33.116Z,3.10
2024-03-14T11:48:35.546Z,2.65
2024-03-14T11:51:42.375Z,2.25
2024-03-14T11:54:44.269Z,3.17
2024-03-14T11:57:49.158Z,2.60
2024-03-14T12:00:54.562Z,3.03
2024-03-14T12:03:59.175Z,3.22
2024-03-14T12:07:04.388Z,2.50
2024-03-14T12:10:11.519Z,3.13
2024-03-14T12:13:14.796Z,2.13
2024-03-14T12:16:19.355Z,3.20
2024-03-14T12:19:21.418Z,3.10
2024-03-14T12:22:23.266Z,2.20
2024-03-14T12:25:25.524Z,1.90
2024-03-14T12:28:27.502Z,2.95
2024-03-14T12:31:30.202Z,2.80
2024-03-14T12:34:31.900Z,2.88
2024-03-14T12:37:34.319Z,2.78
2024-03-14T12:40:36.785Z,2.83
2024-03-14T12:43:39.060Z,2.88
2024-03-14T12:46:40.975Z,2.70
2024-03-14T12:49:43.266Z,2.60
2024-03-14T12:52:46.714Z,3.90
2024-03-14T12:55:56.430Z,2.63
2024-03-14T12:59:00.262Z,2.88
2024-03-14T13:02:02.559Z,3.10
2024-03-14T13:05:13.915Z,3.10
2024-03-14T13:08:15.927Z,3.60
2024-03-14T13:11:18.536Z,3.17
2024-03-14T13:14:26.563Z,2.33
2024-03-14T13:17:29.266Z,2.70
2024-03-14T13:20:32.406Z,3.15
2024-03-14T13:23:34.237Z,2.00
2024-03-14T13:26:35.959Z,2.05
2024-03-14T13:29:38.936Z,1.95
2024-03-14T13:32:40.751Z,2.25
2024-03-14T13:35:42.509Z,3.13
2024-03-14T13:38:44.794Z,1.60
2024-03-14T13:41:48.054Z,3.25
2024-03-14T13:44:50.955Z,1.67
2024-03-14T13:47:56.313Z,1.58
2024-03-14T13:50:58.093Z,3.00
2024-03-14T13:54:03.747Z,3.97
2024-03-14T13:57:09.862Z,1.67
2024-03-14T14:00:13.433Z,2.60
2024-03-14T14:03:26.140Z,1.70
2024-03-14T14:06:28.909Z,2.15
2024-03-14T14:09:33.734Z,2.55
2024-03-14T14:12:36.138Z,2.22
2024-03-14T14:15:38.423Z,1.38
2024-03-14T14:18:41.412Z,1.77
2024-03-14T14:21:43.158Z,1.00
2024-03-14T14:24:45.387Z,1.70
2024-03-14T14:27:47.106Z,1.58
2024-03-14T14:30:48.958Z,1.50
2024-03-14T14:33:51.096Z,1.70
2024-03-14T14:36:53.739Z,1.38
2024-03-14T14:39:56.449Z,1.30
2024-03-14T14:42:59.108Z,1.70
2024-03-14T14:46:01.327Z,1.40
2024-03-14T14:49:03.179Z,1.58
2024-03-14T14:52:05.939Z,0.95
2024-03-14T14:55:15.037Z,1.40
2024-03-14T14:58:17.033Z,1.63
2024-03-14T15:01:19.168Z,2.15
2024-03-14T15:04:22.123Z,1.90
2024-03-14T15:07:23.820Z,1.38
2024-03-14T15:10:25.494Z,1.67
2024-03-14T15:13:27.398Z,1.40
2024-03-14T15:16:29.650Z,1.67
2024-03-14T15:19:38.678Z,1.67
2024-03-14T15:22:46.988Z,2.05
2024-03-14T15:25:48.667Z,2.58
2024-03-14T15:28:50.293Z,1.58
2024-03-14T15:31:51.989Z,1.58
2024-03-14T15:34:53.727Z,1.88
2024-03-14T15:37:59.432Z,1.75
2024-03-14T15:41:01.101Z,1.70
2024-03-14T15:44:02.767Z,1.70
2024-03-14T15:47:05.071Z,2.00
2024-03-14T15:50:09.674Z,2.03
2024-03-14T15:53:12.091Z,2.50
2024-03-14T15:56:13.838Z,3.55
2024-03-14T15:59:15.628Z,2.45
2024-03-14T16:02:17.348Z,1.98
2024-03-14T16:05:19.702Z,2.08
2024-03-14T16:08:31.666Z,2.03
2024-03-14T16:11:38.964Z,1.77
2024-03-14T16:14:40.689Z,2.10
2024-03-14T16:17:42.788Z,2.08
2024-03-14T16:20:49.246Z,1.60
2024-03-14T16:23:51.338Z,2.20
2024-03-14T16:26:53.936Z,2.42
2024-03-14T16:29:56.804Z,2.67
2024-03-14T16:32:58.844Z,1.90
2024-03-14T16:36:05.346Z,2.63
2024-03-14T16:39:09.233Z,2.40
2024-03-14T16:42:11.515Z,2.38
2024-03-14T16:45:13.915Z,6.30
2024-03-14T16:48:17.646Z,2.10
2024-03-14T16:51:19.452Z,2.42
2024-03-14T16:54:23.337Z,3.35
2024-03-14T16:57:26.230Z,2.33
2024-03-14T17:00:33.841Z,3.55
2024-03-14T17:03:35.806Z,3.03
2024-03-14T17:06:37.691Z,2.55
2024-03-14T17:09:39.501Z,3.63
2024-03-14T17:12:41.373Z,2.63
2024-03-14T17:15:44.127Z,3.88
2024-03-14T17:18:45.930Z,2.80
2024-03-14T17:21:47.730Z,4.72
2024-03-14T17:24:49.491Z,2.63
2024-03-14T17:27:55.429Z,2.67
2024-03-14T17:30:57.482Z,5.13
2024-03-14T17:33:59.194Z,4.07
2024-03-14T17:37:02.240Z,4.72
2024-03-14T17:40:12.502Z,2.85
2024-03-14T17:43:14.549Z,4.80
2024-03-14T17:46:16.810Z,5.20
2024-03-14T17:49:21.502Z,3.17
2024-03-14T17:52:23.814Z,3.70
2024-03-14T17:55:25.496Z,4.28
2024-03-14T17:58:27.150Z,5.28
2024-03-14T18:01:28.872Z,4.88
2024-03-14T18:04:32.687Z,8.23
2024-03-14T18:07:35.442Z,6.57
2024-03-14T18:10:37.761Z,6.63
2024-03-14T18:13:39.463Z,5.90
2024-03-14T18:16:42.732Z,5.53
2024-03-14T18:19:44.684Z,5.68
2024-03-14T18:22:46.566Z,7.20
2024-03-14T18:25:48.314Z,8.40
2024-03-14T18:28:50.435Z,5.70
2024-03-14T18:31:52.387Z,6.05
2024-03-14T18:34:57.219Z,6.28
2024-03-14T18:38:00.254Z,7.88
2024-03-14T18:41:02.047Z,5.90
2024-03-14T18:44:03.954Z,7.45
2024-03-14T18:47:06.011Z,6.22
2024-03-14T18:50:12.592Z,6.63
2024-03-14T18:53:21.475Z,5.72
2024-03-14T18:56:30.107Z,5.30
2024-03-14T18:59:32.870Z,5.70
2024-03-14T19:02:35.043Z,4.45
2024-03-14T19:05:37.209Z,5.25
2024-03-14T19:08:39.229Z,4.95
2024-03-14T19:11:41.658Z,4.88
2024-03-14T19:14:45.023Z,3.92
2024-03-14T19:17:48.359Z,4.15
2024-03-14T19:20:51.258Z,4.53
2024-03-14T19:23:55.604Z,4.10
2024-03-14T19:27:00.098Z,4.72
2024-03-14T19:30:04.155Z,3.25
2024-03-14T19:33:07.492Z,3.67
2024-03-14T19:36:10.292Z,4.53
2024-03-14T19:39:12.593Z,4.70
2024-03-14T19:42:18.574Z,6.20
2024-03-14T19:45:22.376Z,6.65
2024-03-14T19:48:24.124Z,6.10
2024-03-14T19:51:25.857Z,5.25
2024-03-14T19:54:27.520Z,4.80
2024-03-14T19:57:30.540Z,5.95
2024-03-14T20:00:32.417Z,7.85
2024-03-14T20:03:34.099Z,6.13
2024-03-14T20:06:36.024Z,7.32
2024-03-14T20:09:38.711Z,7.47
2024-03-14T20:12:40.481Z,6.60
2024-03-14T20:15:42.530Z,8.63
2024-03-14T20:18:44.850Z,7.95
2024-03-14T20:21:46.703Z,7.05
2024-03-14T20:24:49.724Z,7.75
2024-03-14T20:27:51.756Z,7.68
2024-03-14T20:30:53.715Z,8.93
2024-03-14T20:33:58.062Z,7.28
2024-03-14T20:37:00.061Z,6.32
2024-03-14T20:40:02.382Z,5.80
2024-03-14T20:43:06.904Z,5.78
2024-03-14T20:46:11.474Z,6.80
2024-03-14T20:49:15.263Z,7.57
2024-03-14T20:52:16.916Z,6.78
2024-03-14T20:55:30.273Z,6.47
2024-03-14T20:58:32.876Z,5.25
2024-03-14T21:01:34.675Z,6.80
2024-03-14T21:04:36.377Z,6.90
2024-03-14T21:07:39.215Z,6.00
2024-03-14T21:10:41.291Z,6.07
2024-03-14T21:13:43.019Z,8.80
2024-03-14T21:16:44.780Z,8.48
2024-03-14T21:19:48.116Z,8.43
2024-03-14T21:22:53.076Z,8.30
2024-03-14T21:25:55.072Z,6.72
2024-03-14T21:29:00.525Z,6.03
2024-03-14T21:32:02.675Z,6.50
2024-03-14T21:35:10.799Z,7.13
2024-03-14T21:38:12.904Z,5.93
2024-03-14T21:41:14.572Z,9.95
2024-03-14T21:44:18.661Z,5.63
2024-03-14T21:47:20.315Z,6.63
2024-03-14T21:50:22.021Z,7.05
2024-03-14T21:53:23.863Z,7.65
2024-03-14T21:56:26.206Z,9.68
2024-03-14T21:59:27.886Z,8.60
2024-03-14T22:02:29.534Z,9.38
2024-03-14T22:05:31.908Z,9.23
2024-03-14T22:08:33.626Z,10.30
2024-03-14T22:11:35.468Z,8.65
2024-03-14T22:14:37.363Z,7.22
2024-03-14T22:17:39.622Z,8.77
2024-03-14T22:20:41.414Z,7.97
2024-03-14T22:23:43.573Z,7.53
2024-03-14T22:26:46.459Z,6.93
2024-03-14T22:29:48.367Z,8.38
2024-03-14T22:32:50.447Z,9.63
2024-03-14T22:35:52.106Z,8.05
2024-03-14T22:38:53.905Z,6.72
2024-03-14T22:41:55.571Z,7.22
2024-03-14T22:44:58.505Z,8.23
2024-03-14T22:48:00.141Z,7.07
2024-03-14T22:51:02.022Z,8.65
2024-03-14T22:54:03.843Z,11.77
2024-03-14T22:57:07.132Z,9.15
2024-03-14T23:00:20.242Z,7.90
2024-03-14T23:03:22.030Z,7.97
2024-03-14T23:06:23.749Z,7.35
2024-03-14T23:09:25.453Z,8.82
2024-03-14T23:12:27.111Z,7.47
2024-03-14T23:15:31.466Z,7.32
2024-03-14T23:18:33.220Z,8.50
2024-03-14T23:21:36.027Z,7.13
2024-03-14T23:24:38.356Z,7.97
2024-03-14T23:27:40.390Z,8.10
2024-03-14T23:30:50.111Z,6.78
2024-03-14T23:33:52.092Z,7.35
2024-03-14T23:36:53.893Z,6.28
2024-03-14T23:39:56.035Z,8.50
2024-03-14T23:42:58.988Z,6.88
2024-03-14T23:46:00.706Z,6.63
2024-03-14T23:49:02.450Z,5.78
2024-03-14T23:52:04.438Z,6.70
2024-03-14T23:55:06.438Z,8.82
2024-03-14T23:58:11.041Z,7.32
